Time;durP1;ratioP1;P1;durP2;ratioP2;P2;SDS_P1;SDS_P2;PMS_P1;PMS_P2;Temp;Humidity;BMP_temperature;BMP_pressure;BME280_temperature;BME280_humidity;BME280_pressure;Samples;Min_cycle;Max_cycle;Signal;HPM_P1;HPM_P2
2024/03/31 00:02:15;;;;;;;;;;;9.10;1.00;;;;;;5000115;28;20379;-85
2024/03/31 00:04:40;;;;;;;;;;;9.10;1.00;;;;;;4985323;28;19944;-83
2024/03/31 00:07:06;;;;;;;;;;;9.00;1.00;;;;;;5010749;28;19920;-84
2024/03/31 00:09:31;;;;;;;;;;;9.00;1.00;;;;;;5007759;28;19917;-83
2024/03/31 00:11:57;;;;;;;;;;;9.00;1.00;;;;;;5015246;28;19952;-88
2024/03/31 00:14:22;;;;;;;;;;;8.90;1.00;;;;;;5008054;28;19926;-83
2024/03/31 00:16:48;;;;;;;;;;;8.70;1.00;;;;;;5012625;28;19917;-82
2024/03/31 00:19:13;;;;;;;;;;;8.60;1.00;;;;;;5016771;28;19909;-82
2024/03/31 00:21:39;;;;;;;;;;;8.50;1.00;;;;;;5014044;28;19964;-84
2024/03/31 00:24:04;;;;;;;;;;;8.40;1.00;;;;;;5012988;28;20437;-85
2024/03/31 00:26:30;;;;;;;;;;;8.40;1.00;;;;;;5012255;28;19924;-85
2024/03/31 00:28:55;;;;;;;;;;;8.40;1.00;;;;;;5008502;28;19937;-84
2024/03/31 00:31:21;;;;;;;;;;;8.40;1.00;;;;;;5014478;28;19920;-84
2024/03/31 00:33:49;;;;;;;;;;;8.50;1.00;;;;;;5011158;28;20347;-84
2024/03/31 00:36:15;;;;;;;;;;;8.50;2.10;;;;;;5000669;28;20055;-84
2024/03/31 00:38:40;;;;;;;;;;;8.60;5.00;;;;;;5016529;28;20451;-84
2024/03/31 00:41:06;;;;;;;;;;;8.70;9.10;;;;;;5016979;28;19913;-83
2024/03/31 00:43:31;;;;;;;;;;;8.70;11.30;;;;;;5017395;28;19927;-84
2024/03/31 00:45:56;;;;;;;;;;;8.80;8.90;;;;;;5015218;28;20016;-90
2024/03/31 00:48:22;;;;;;;;;;;8.90;5.20;;;;;;5017828;28;20315;-85
2024/03/31 00:50:47;;;;;;;;;;;8.90;1.00;;;;;;5000933;28;19998;-84
2024/03/31 00:53:13;;;;;;;;;;;8.80;1.00;;;;;;4992193;28;19918;-87
2024/03/31 00:55:38;;;;;;;;;;;8.90;3.90;;;;;;5010347;28;19918;-83
2024/03/31 00:58:04;;;;;;;;;;;8.90;6.80;;;;;;5006733;28;19921;-86
2024/03/31 01:00:29;;;;;;;;;;;8.90;14.40;;;;;;5014506;28;19936;-84
2024/03/31 01:02:55;;;;;;;;;;;8.90;17.10;;;;;;5000598;28;19914;-87
2024/03/31 01:05:20;;;;;;;;;;;8.90;18.70;;;;;;5016671;28;19929;-84
2024/03/31 01:07:46;;;;;;;;;;;9.00;23.00;;;;;;4993159;28;19996;-83
2024/03/31 01:10:11;;;;;;;;;;;9.00;23.90;;;;;;4990073;28;19913;-87
2024/03/31 01:12:37;;;;;;;;;;;9.00;21.30;;;;;;5014344;28;19921;-84
2024/03/31 01:15:03;;;;;;;;;;;9.00;18.10;;;;;;5015179;28;19972;-84
2024/03/31 01:17:28;;;;;;;;;;;9.10;17.40;;;;;;5013047;28;19921;-86
2024/03/31 01:19:54;;;;;;;;;;;9.10;12.40;;;;;;5020274;28;19914;-85
2024/03/31 01:22:20;;;;;;;;;;;9.10;9.60;;;;;;5022212;28;19953;-85
2024/03/31 01:24:45;;;;;;;;;;;9.00;10.20;;;;;;5021251;28;19914;-85
2024/03/31 01:27:11;;;;;;;;;;;9.10;11.60;;;;;;5015217;28;19913;-84
2024/03/31 01:29:36;;;;;;;;;;;9.10;9.70;;;;;;5015184;28;19984;-88
2024/03/31 01:32:02;;;;;;;;;;;9.20;5.20;;;;;;5020402;28;19960;-86
2024/03/31 01:34:28;;;;;;;;;;;9.10;4.10;;;;;;5003502;28;19936;-85
2024/03/31 01:36:53;;;;;;;;;;;9.20;2.20;;;;;;5017677;28;20028;-83
2024/03/31 01:39:18;;;;;;;;;;;9.10;2.60;;;;;;5009294;28;19976;-84
2024/03/31 01:41:46;;;;;;;;;;;9.10;3.30;;;;;;5011157;28;19924;-82
2024/03/31 01:44:11;;;;;;;;;;;9.10;3.00;;;;;;5017254;28;19972;-87
2024/03/31 01:46:37;;;;;;;;;;;9.10;2.50;;;;;;5011104;28;20257;-84
2024/03/31 01:49:02;;;;;;;;;;;9.10;2.30;;;;;;4998104;28;19924;-84
2024/03/31 01:51:28;;;;;;;;;;;9.10;2.50;;;;;;5015352;28;19968;-83
2024/03/31 01:53:53;;;;;;;;;;;9.10;1.00;;;;;;5016111;28;19917;-88
2024/03/31 01:56:18;;;;;;;;;;;9.10;1.10;;;;;;5015984;28;19917;-86
2024/03/31 01:58:44;;;;;;;;;;;9.10;1.00;;;;;;4988369;28;19964;-83
2024/03/31 02:01:09;;;;;;;;;;;9.10;1.50;;;;;;5009440;28;20383;-84
2024/03/31 02:03:35;;;;;;;;;;;9.10;4.60;;;;;;4994551;28;19948;-83
2024/03/31 02:06:10;;;;;;;;;;;9.20;6.50;;;;;;5010735;28;19925;-84
2024/03/31 02:08:36;;;;;;;;;;;9.20;3.20;;;;;;5011071;28;20279;-83
2024/03/31 02:11:01;;;;;;;;;;;9.20;1.20;;;;;;4988778;28;19921;-83
2024/03/31 02:13:27;;;;;;;;;;;9.30;1.00;;;;;;5004604;28;19924;-83
2024/03/31 02:15:53;;;;;;;;;;;9.30;1.00;;;;;;5006273;28;20012;-84
2024/03/31 02:18:19;;;;;;;;;;;9.30;1.00;;;;;;4992606;28;19924;-84
2024/03/31 02:20:44;;;;;;;;;;;9.30;1.00;;;;;;4992467;28;19913;-84
2024/03/31 02:23:10;;;;;;;;;;;9.20;1.00;;;;;;5011001;28;20005;-82
2024/03/31 02:25:35;;;;;;;;;;;9.20;1.00;;;;;;4992025;28;20379;-83
2024/03/31 02:28:01;;;;;;;;;;;9.20;1.00;;;;;;5006108;28;19921;-80
2024/03/31 02:30:26;;;;;;;;;;;9.20;1.00;;;;;;5010639;28;19936;-85
2024/03/31 02:32:52;;;;;;;;;;;9.20;1.00;;;;;;5021156;28;19913;-84
2024/03/31 02:35:17;;;;;;;;;;;9.30;1.00;;;;;;5022028;28;19917;-83
2024/03/31 02:37:44;;;;;;;;;;;9.20;1.00;;;;;;4994223;28;19921;-84
2024/03/31 02:40:10;;;;;;;;;;;9.20;1.00;;;;;;4995791;28;20046;-84
2024/03/31 02:42:36;;;;;;;;;;;9.10;1.00;;;;;;5017013;28;19972;-83
2024/03/31 02:45:02;;;;;;;;;;;9.10;1.00;;;;;;5002860;28;19921;-84
2024/03/31 02:47:27;;;;;;;;;;;9.10;1.00;;;;;;4997997;28;19914;-85
2024/03/31 02:49:52;;;;;;;;;;;9.10;6.40;;;;;;5013461;28;20264;-83
2024/03/31 02:52:18;;;;;;;;;;;9.20;9.10;;;;;;5000103;28;19917;-84
2024/03/31 02:54:43;;;;;;;;;;;9.20;11.40;;;;;;4997717;28;19921;-83
2024/03/31 02:57:09;;;;;;;;;;;9.20;11.00;;;;;;5010786;28;20399;-84
2024/03/31 02:59:35;;;;;;;;;;;9.20;10.80;;;;;;4993309;28;19920;-84
2024/03/31 03:02:00;;;;;;;;;;;9.20;10.90;;;;;;5017243;28;20021;-84
2024/03/31 03:04:26;;;;;;;;;;;9.20;14.70;;;;;;5001789;28;19914;-86
2024/03/31 03:06:51;;;;;;;;;;;9.30;14.40;;;;;;4998254;28;19985;-85
2024/03/31 03:09:19;;;;;;;;;;;9.30;15.70;;;;;;5012990;28;19921;-84
2024/03/31 03:11:44;;;;;;;;;;;9.30;15.70;;;;;;4994182;28;20368;-84
2024/03/31 03:14:09;;;;;;;;;;;9.20;15.80;;;;;;4990835;28;19924;-82
2024/03/31 03:16:35;;;;;;;;;;;9.20;18.60;;;;;;5003141;28;20380;-83
2024/03/31 03:19:00;;;;;;;;;;;9.20;23.20;;;;;;5006565;28;19917;-83
2024/03/31 03:21:26;;;;;;;;;;;9.20;27.50;;;;;;4988651;28;19926;-82
2024/03/31 03:23:51;;;;;;;;;;;9.20;34.20;;;;;;5010062;28;20013;-84
2024/03/31 03:26:17;;;;;;;;;;;9.20;42.00;;;;;;5003986;28;19952;-83
2024/03/31 03:28:42;;;;;;;;;;;9.20;50.70;;;;;;5008338;28;19913;-84
2024/03/31 03:31:08;;;;;;;;;;;9.20;57.30;;;;;;5002590;28;19914;-83
2024/03/31 03:33:33;;;;;;;;;;;9.20;64.30;;;;;;5011898;28;19924;-83
2024/03/31 03:36:02;;;;;;;;;;;9.20;68.50;;;;;;5011540;28;20012;-83
2024/03/31 03:38:28;;;;;;;;;;;9.20;71.80;;;;;;4995334;28;19913;-83
2024/03/31 03:40:53;;;;;;;;;;;9.30;73.70;;;;;;5002785;28;19959;-81
2024/03/31 03:43:19;;;;;;;;;;;9.30;73.10;;;;;;5006413;28;20351;-84
2024/03/31 03:45:45;;;;;;;;;;;9.30;70.10;;;;;;5005179;28;19921;-84
2024/03/31 03:48:11;;;;;;;;;;;9.30;67.80;;;;;;5016242;28;19914;-84
2024/03/31 03:50:36;;;;;;;;;;;9.30;65.40;;;;;;5015103;28;20287;-91
2024/03/31 03:53:03;;;;;;;;;;;9.40;66.90;;;;;;5012564;28;19921;-86
2024/03/31 03:55:28;;;;;;;;;;;9.40;65.10;;;;;;5018991;28;20303;-83
2024/03/31 03:57:54;;;;;;;;;;;9.40;62.10;;;;;;5013406;28;19913;-84
2024/03/31 04:00:19;;;;;;;;;;;9.40;59.80;;;;;;5015479;28;19917;-84
2024/03/31 04:02:45;;;;;;;;;;;9.40;57.70;;;;;;5017377;28;19920;-88
2024/03/31 04:05:10;;;;;;;;;;;9.40;56.20;;;;;;5013525;28;19914;-84
2024/03/31 04:07:36;;;;;;;;;;;9.30;56.70;;;;;;5012319;28;20008;-89
2024/03/31 04:10:01;;;;;;;;;;;9.30;59.80;;;;;;5010498;28;20296;-86
2024/03/31 04:12:26;;;;;;;;;;;9.20;67.80;;;;;;5010889;28;19929;-83
2024/03/31 04:14:52;;;;;;;;;;;9.30;76.50;;;;;;5002777;28;20012;-86
2024/03/31 04:17:17;;;;;;;;;;;9.20;82.80;;;;;;5012671;28;19914;-87
2024/03/31 04:19:43;;;;;;;;;;;9.20;89.10;;;;;;5010655;28;19917;-84
2024/03/31 04:22:08;;;;;;;;;;;9.30;90.50;;;;;;5016303;28;19918;-85
2024/03/31 04:24:34;;;;;;;;;;;9.30;91.50;;;;;;5014605;28;19913;-87
2024/03/31 04:26:59;;;;;;;;;;;9.30;92.00;;;;;;5002769;28;19914;-86
2024/03/31 04:29:25;;;;;;;;;;;9.30;92.30;;;;;;4999622;28;19921;-85
2024/03/31 04:31:54;;;;;;;;;;;9.30;92.40;;;;;;5024558;28;21180;-83
2024/03/31 04:34:20;;;;;;;;;;;9.30;93.20;;;;;;5022637;28;19918;-91
2024/03/31 04:36:47;;;;;;;;;;;9.30;93.50;;;;;;5052022;23;19926;-85
2024/03/31 04:39:12;;;;;;;;;;;9.40;93.70;;;;;;5023740;28;19918;-85
2024/03/31 04:41:38;;;;;;;;;;;9.40;93.40;;;;;;5041512;28;19920;-85
2024/03/31 04:44:03;;;;;;;;;;;9.50;93.10;;;;;;5042531;28;19964;-85
2024/03/31 04:46:29;;;;;;;;;;;9.50;92.60;;;;;;5045410;28;19919;-86
2024/03/31 04:48:54;;;;;;;;;;;9.50;91.00;;;;;;5028839;28;19913;-85
2024/03/31 04:51:20;;;;;;;;;;;9.50;89.00;;;;;;5028987;28;19913;-83
2024/03/31 04:53:45;;;;;;;;;;;9.50;86.40;;;;;;5032249;28;20396;-82
2024/03/31 04:56:11;;;;;;;;;;;9.60;84.00;;;;;;5010524;28;19996;-85
2024/03/31 04:58:37;;;;;;;;;;;9.60;82.60;;;;;;5012693;28;20292;-84
2024/03/31 05:01:03;;;;;;;;;;;9.60;82.70;;;;;;5027854;28;19917;-84
2024/03/31 05:03:28;;;;;;;;;;;9.60;81.90;;;;;;5011465;28;19968;-83
2024/03/31 05:05:54;;;;;;;;;;;9.50;80.90;;;;;;5009767;28;19913;-84
2024/03/31 05:08:19;;;;;;;;;;;9.50;81.70;;;;;;5005689;28;19917;-83
2024/03/31 05:10:57;;;;;;;;;;;9.50;82.00;;;;;;5009813;28;19925;-83
2024/03/31 05:13:27;;;;;;;;;;;9.50;85.50;;;;;;5028694;28;19917;-84
2024/03/31 05:15:58;;;;;;;;;;;9.50;88.80;;;;;;5008852;28;19967;-84
2024/03/31 05:18:24;;;;;;;;;;;9.40;90.40;;;;;;5028266;28;20323;-85
2024/03/31 05:20:59;;;;;;;;;;;9.40;91.20;;;;;;5010116;28;19913;-85
2024/03/31 05:23:25;;;;;;;;;;;9.40;92.00;;;;;;5029765;28;19920;-84
2024/03/31 05:25:51;;;;;;;;;;;9.40;92.70;;;;;;5028341;28;19913;-85
2024/03/31 05:28:20;;;;;;;;;;;9.40;93.10;;;;;;5012780;28;20282;-85
2024/03/31 05:30:45;;;;;;;;;;;9.40;92.80;;;;;;5021422;28;19956;-84
2024/03/31 05:33:11;;;;;;;;;;;9.40;92.90;;;;;;5017558;28;20383;-83
2024/03/31 05:35:36;;;;;;;;;;;9.40;93.40;;;;;;5017836;28;20020;-83
2024/03/31 05:38:02;;;;;;;;;;;9.40;93.10;;;;;;5030528;28;19955;-85
2024/03/31 05:40:28;;;;;;;;;;;9.40;92.90;;;;;;5025314;28;19914;-85
2024/03/31 05:42:53;;;;;;;;;;;9.40;93.10;;;;;;5040182;28;19913;-86
2024/03/31 05:45:19;;;;;;;;;;;9.50;91.60;;;;;;5040929;28;19979;-85
2024/03/31 05:47:44;;;;;;;;;;;9.60;90.60;;;;;;5042067;28;19913;-85
2024/03/31 05:50:09;;;;;;;;;;;9.70;85.30;;;;;;5024575;28;19913;-86
2024/03/31 05:52:35;;;;;;;;;;;9.80;77.30;;;;;;5045925;28;19913;-85
2024/03/31 05:55:01;;;;;;;;;;;10.00;61.70;;;;;;5041425;28;19917;-85
2024/03/31 05:57:26;;;;;;;;;;;10.20;53.20;;;;;;5042880;28;19925;-86
2024/03/31 05:59:52;;;;;;;;;;;10.90;43.20;;;;;;5043247;28;19913;-84
2024/03/31 06:02:17;;;;;;;;;;;13.60;1.00;;;;;;5039756;28;19953;-84
2024/03/31 06:04:43;;;;;;;;;;;16.90;1.00;;;;;;5036340;28;19921;-84
2024/03/31 06:07:08;;;;;;;;;;;19.70;46.20;;;;;;5040149;28;19921;-85
2024/03/31 06:09:34;;;;;;;;;;;22.00;1.00;;;;;;5014905;28;19913;-83
2024/03/31 06:11:59;;;;;;;;;;;23.80;99.90;;;;;;5032492;28;19918;-83
2024/03/31 06:14:24;;;;;;;;;;;25.30;99.90;;;;;;5033806;28;19924;-83
2024/03/31 06:16:50;;;;;;;;;;;26.90;99.90;;;;;;5030674;28;20496;-83
2024/03/31 06:19:15;;;;;;;;;;;27.30;99.90;;;;;;5029549;28;19928;-84
2024/03/31 06:21:41;;;;;;;;;;;27.50;99.90;;;;;;5006996;28;19936;-83
2024/03/31 06:24:06;;;;;;;;;;;28.80;99.90;;;;;;5030160;28;19913;-83
2024/03/31 06:26:32;;;;;;;;;;;29.90;99.90;;;;;;5032023;28;20697;-84
2024/03/31 06:28:57;;;;;;;;;;;30.60;99.90;;;;;;5031408;28;20439;-83
2024/03/31 06:31:23;;;;;;;;;;;31.50;99.90;;;;;;5024538;28;19913;-83
2024/03/31 06:33:48;;;;;;;;;;;31.40;99.90;;;;;;5031272;28;20056;-84
2024/03/31 06:36:13;;;;;;;;;;;30.60;99.90;;;;;;5014882;28;20016;-83
2024/03/31 06:38:39;;;;;;;;;;;27.90;99.90;;;;;;5031537;28;20030;-81
2024/03/31 06:41:04;;;;;;;;;;;25.50;99.90;;;;;;5034760;28;19921;-82
2024/03/31 06:43:30;;;;;;;;;;;23.50;99.90;;;;;;5037804;28;19920;-81
2024/03/31 06:45:55;;;;;;;;;;;22.30;99.90;;;;;;5014626;28;19954;-83
2024/03/31 06:48:22;;;;;;;;;;;21.00;99.90;;;;;;5034828;28;19909;-83
2024/03/31 06:50:47;;;;;;;;;;;21.10;99.90;;;;;;5033858;28;19913;-83
2024/03/31 06:53:12;;;;;;;;;;;20.30;99.90;;;;;;5033297;28;19995;-83
2024/03/31 06:55:41;;;;;;;;;;;19.80;99.90;;;;;;5033403;28;19952;-82
2024/03/31 06:58:06;;;;;;;;;;;19.00;99.90;;;;;;5032115;28;19913;-83
2024/03/31 07:00:32;;;;;;;;;;;18.50;99.90;;;;;;5030733;28;19988;-83
2024/03/31 07:02:57;;;;;;;;;;;17.80;99.90;;;;;;5029731;28;19921;-83
2024/03/31 07:05:23;;;;;;;;;;;17.20;1.00;;;;;;5030865;28;19919;-83
2024/03/31 07:07:48;;;;;;;;;;;16.80;1.00;;;;;;5005477;28;19918;-83
2024/03/31 07:10:14;;;;;;;;;;;16.40;1.00;;;;;;5012298;28;19982;-83
2024/03/31 07:12:40;;;;;;;;;;;16.00;95.50;;;;;;5036620;28;19920;-82
2024/03/31 07:15:06;;;;;;;;;;;15.80;99.90;;;;;;5033693;28;20164;-84
2024/03/31 07:17:34;;;;;;;;;;;15.80;1.00;;;;;;5034560;28;19914;-83
2024/03/31 07:20:00;;;;;;;;;;;16.10;99.90;;;;;;5032950;28;19922;-84
2024/03/31 07:22:25;;;;;;;;;;;16.80;99.90;;;;;;5032112;28;19928;-84
2024/03/31 07:24:51;;;;;;;;;;;18.20;1.00;;;;;;5038519;28;19913;-83
2024/03/31 07:27:16;;;;;;;;;;;18.30;1.00;;;;;;5030248;28;20005;-84
2024/03/31 07:29:42;;;;;;;;;;;17.90;1.00;;;;;;5031824;28;20008;-81
2024/03/31 07:32:07;;;;;;;;;;;17.20;1.00;;;;;;5033264;28;19944;-83
2024/03/31 07:34:32;;;;;;;;;;;16.60;1.00;;;;;;5030464;28;20359;-83
2024/03/31 07:37:17;;;;;;;;;;;16.00;99.90;;;;;;5025049;28;20024;-82
2024/03/31 07:39:42;;;;;;;;;;;15.80;99.90;;;;;;5032107;28;19935;-83
2024/03/31 07:42:08;;;;;;;;;;;16.00;99.90;;;;;;5028659;28;19913;-83
2024/03/31 07:44:34;;;;;;;;;;;16.40;99.90;;;;;;5029363;28;19959;-83
2024/03/31 07:46:59;;;;;;;;;;;17.00;1.00;;;;;;5025969;28;19917;-83
2024/03/31 07:49:25;;;;;;;;;;;19.00;1.00;;;;;;5035845;28;19920;-84
2024/03/31 07:51:51;;;;;;;;;;;20.30;99.90;;;;;;5037580;28;20004;-83
2024/03/31 07:54:16;;;;;;;;;;;22.20;99.90;;;;;;5037127;28;19984;-84
2024/03/31 07:56:41;;;;;;;;;;;23.00;99.90;;;;;;5021935;28;19913;-82
2024/03/31 07:59:07;;;;;;;;;;;22.30;99.90;;;;;;5023798;28;19922;-83
2024/03/31 08:01:32;;;;;;;;;;;21.60;99.90;;;;;;5020960;28;19913;-83
2024/03/31 08:03:58;;;;;;;;;;;20.90;99.90;;;;;;5020210;28;19923;-83
2024/03/31 08:06:23;;;;;;;;;;;20.20;99.90;;;;;;5021130;28;19914;-82
2024/03/31 08:08:49;;;;;;;;;;;19.40;99.90;;;;;;5009046;28;19924;-83
2024/03/31 08:11:14;;;;;;;;;;;18.60;99.90;;;;;;5028431;28;20272;-83
2024/03/31 08:13:41;;;;;;;;;;;18.30;99.90;;;;;;5029894;28;19924;-82
2024/03/31 08:16:07;;;;;;;;;;;18.20;1.00;;;;;;5029096;28;19913;-82
2024/03/31 08:18:32;;;;;;;;;;;18.30;1.00;;;;;;5009773;28;19932;-82
2024/03/31 08:20:57;;;;;;;;;;;18.10;1.00;;;;;;5028550;28;19913;-82
2024/03/31 08:23:23;;;;;;;;;;;18.20;1.00;;;;;;5028979;28;19921;-79
2024/03/31 08:25:51;;;;;;;;;;;18.40;1.00;;;;;;5026680;28;19987;-78
2024/03/31 08:28:17;;;;;;;;;;;19.60;99.90;;;;;;5020153;28;19927;-83
2024/03/31 08:30:42;;;;;;;;;;;20.60;99.90;;;;;;5037912;28;20004;-82
2024/03/31 08:33:08;;;;;;;;;;;21.40;99.90;;;;;;5033025;28;19948;-82
2024/03/31 08:35:33;;;;;;;;;;;23.30;99.90;;;;;;5023404;28;19921;-83
2024/03/31 08:37:59;;;;;;;;;;;25.90;99.90;;;;;;5024165;28;19947;-82
2024/03/31 08:40:26;;;;;;;;;;;27.80;99.90;;;;;;5020973;28;19913;-81
2024/03/31 08:42:59;;;;;;;;;;;27.70;99.90;;;;;;5037381;28;20573;-81
2024/03/31 08:45:25;;;;;;;;;;;26.20;99.90;;;;;;5042102;28;19913;-82
2024/03/31 08:47:53;;;;;;;;;;;26.60;99.90;;;;;;5023038;28;19976;-82
2024/03/31 08:50:18;;;;;;;;;;;27.80;99.90;;;;;;5040098;28;19928;-82
2024/03/31 08:52:44;;;;;;;;;;;29.00;99.90;;;;;;5042006;28;20000;-82
2024/03/31 08:55:10;;;;;;;;;;;30.30;99.90;;;;;;5039707;28;19929;-82
2024/03/31 08:57:36;;;;;;;;;;;31.60;99.90;;;;;;5042156;28;19940;-82
2024/03/31 09:00:03;;;;;;;;;;;32.90;99.90;;;;;;5046063;28;19901;-82
2024/03/31 09:02:29;;;;;;;;;;;33.60;99.90;;;;;;5044876;28;19940;-82
2024/03/31 09:04:54;;;;;;;;;;;33.80;99.90;;;;;;5038705;28;19921;-81
2024/03/31 09:07:20;;;;;;;;;;;33.80;99.90;;;;;;5037893;28;19927;-83
2024/03/31 09:09:46;;;;;;;;;;;33.80;99.90;;;;;;5042577;28;19913;-83
2024/03/31 09:12:11;;;;;;;;;;;34.20;99.90;;;;;;5045583;28;20055;-83
2024/03/31 09:14:37;;;;;;;;;;;34.40;99.90;;;;;;5038662;28;19924;-82
2024/03/31 09:17:06;;;;;;;;;;;34.40;99.90;;;;;;5035838;28;19922;-82
2024/03/31 09:19:31;;;;;;;;;;;34.40;99.90;;;;;;5043318;28;19939;-83
2024/03/31 09:21:57;;;;;;;;;;;34.20;99.90;;;;;;5035607;28;19913;-82
2024/03/31 09:24:22;;;;;;;;;;;33.70;99.90;;;;;;5034472;28;19917;-82
2024/03/31 09:26:49;;;;;;;;;;;33.60;99.90;;;;;;5037108;28;19913;-83
2024/03/31 09:29:14;;;;;;;;;;;34.20;99.90;;;;;;5018455;28;19924;-82
2024/03/31 09:31:40;;;;;;;;;;;34.30;99.90;;;;;;5036739;28;19918;-81
2024/03/31 09:34:06;;;;;;;;;;;34.20;99.90;;;;;;5039644;28;19932;-81
2024/03/31 09:36:35;;;;;;;;;;;33.70;99.90;;;;;;5036654;28;19917;-81
2024/03/31 09:39:01;;;;;;;;;;;33.50;99.90;;;;;;5043336;28;19913;-83
2024/03/31 09:41:26;;;;;;;;;;;33.30;99.90;;;;;;5034826;28;20439;-80
2024/03/31 09:43:53;;;;;;;;;;;33.40;99.90;;;;;;5038323;28;19921;-82
2024/03/31 09:46:19;;;;;;;;;;;33.60;99.90;;;;;;5046010;28;19940;-82
2024/03/31 09:48:47;;;;;;;;;;;34.00;99.90;;;;;;5044822;28;19913;-82
2024/03/31 09:51:19;;;;;;;;;;;34.20;99.90;;;;;;5036918;28;20667;-81
2024/03/31 09:53:48;;;;;;;;;;;33.80;99.90;;;;;;5043762;28;19917;-81
2024/03/31 09:56:16;;;;;;;;;;;34.20;99.90;;;;;;5044010;28;19924;-82
2024/03/31 09:58:43;;;;;;;;;;;34.30;99.90;;;;;;5017913;28;20071;-82
2024/03/31 10:01:10;;;;;;;;;;;34.30;99.90;;;;;;5040497;28;19944;-83
2024/03/31 10:03:38;;;;;;;;;;;34.70;99.90;;;;;;5043633;28;19921;-82
2024/03/31 10:06:04;;;;;;;;;;;34.70;99.90;;;;;;5038732;28;19901;-82
2024/03/31 10:08:30;;;;;;;;;;;34.60;99.90;;;;;;5035161;28;19924;-82
2024/03/31 10:10:57;;;;;;;;;;;34.30;99.90;;;;;;5038381;28;19917;-82
2024/03/31 10:13:23;;;;;;;;;;;34.00;99.90;;;;;;5024226;28;19948;-81
2024/03/31 10:15:49;;;;;;;;;;;34.10;99.90;;;;;;5040333;28;19912;-81
2024/03/31 10:18:15;;;;;;;;;;;33.90;99.90;;;;;;5037389;28;19952;-83
2024/03/31 10:20:44;;;;;;;;;;;33.20;99.90;;;;;;5039464;28;19913;-82
2024/03/31 10:23:10;;;;;;;;;;;32.90;99.90;;;;;;5036628;28;19913;-81
2024/03/31 10:25:36;;;;;;;;;;;33.50;99.90;;;;;;5037098;28;19920;-82
2024/03/31 10:28:03;;;;;;;;;;;34.00;99.90;;;;;;5035495;28;19944;-81
2024/03/31 10:30:29;;;;;;;;;;;35.00;99.90;;;;;;5037392;28;19913;-82
2024/03/31 10:32:55;;;;;;;;;;;34.80;99.90;;;;;;5038011;28;19967;-82
2024/03/31 10:35:21;;;;;;;;;;;34.50;99.90;;;;;;5036271;28;19918;-82
2024/03/31 10:37:47;;;;;;;;;;;34.60;99.90;;;;;;5053813;23;19925;-88
2024/03/31 10:40:14;;;;;;;;;;;33.30;99.90;;;;;;5014299;28;19939;-90
2024/03/31 10:42:40;;;;;;;;;;;31.40;99.90;;;;;;5030167;28;19937;-90
2024/03/31 10:45:06;;;;;;;;;;;30.20;99.90;;;;;;5024810;28;20018;-88
2024/03/31 10:47:33;;;;;;;;;;;29.70;99.90;;;;;;5008330;28;19917;-85
2024/03/31 10:50:00;;;;;;;;;;;28.90;99.90;;;;;;5008235;28;19920;-89
2024/03/31 10:52:27;;;;;;;;;;;27.70;99.90;;;;;;5022537;28;19960;-87
2024/03/31 10:54:53;;;;;;;;;;;26.90;99.90;;;;;;5004578;28;19942;-87
2024/03/31 10:57:19;;;;;;;;;;;26.20;99.90;;;;;;5010562;28;20008;-85
2024/03/31 10:59:44;;;;;;;;;;;25.60;99.90;;;;;;5006571;28;20417;-88
2024/03/31 11:02:11;;;;;;;;;;;25.10;99.90;;;;;;5018275;28;19921;-86
2024/03/31 11:04:36;;;;;;;;;;;24.70;99.90;;;;;;5019613;28;20290;-86
2024/03/31 11:07:11;;;;;;;;;;;24.40;99.90;;;;;;5015894;28;19913;-88
2024/03/31 11:09:37;;;;;;;;;;;24.40;99.90;;;;;;5024649;28;19976;-88
2024/03/31 11:12:03;;;;;;;;;;;24.30;99.90;;;;;;5027725;28;20422;-88
2024/03/31 11:14:31;;;;;;;;;;;24.20;99.90;;;;;;5009114;28;19921;-87
2024/03/31 11:16:57;;;;;;;;;;;24.10;99.90;;;;;;5021784;28;19913;-87
2024/03/31 11:19:23;;;;;;;;;;;23.90;99.90;;;;;;5014910;28;19967;-86
2024/03/31 11:21:54;;;;;;;;;;;23.60;99.90;;;;;;5023352;28;20406;-86
2024/03/31 11:24:19;;;;;;;;;;;23.50;99.90;;;;;;5020184;28;19921;-88
2024/03/31 11:26:45;;;;;;;;;;;23.30;99.90;;;;;;5005443;28;20347;-88
2024/03/31 11:29:10;;;;;;;;;;;23.30;99.90;;;;;;5033976;28;20007;-86
2024/03/31 11:31:36;;;;;;;;;;;23.10;99.90;;;;;;5039386;28;19920;-87
2024/03/31 11:34:02;;;;;;;;;;;22.80;99.90;;;;;;5011866;28;20004;-89
2024/03/31 11:36:27;;;;;;;;;;;22.70;99.90;;;;;;5031797;28;20011;-87
2024/03/31 11:38:53;;;;;;;;;;;23.10;99.90;;;;;;5029603;28;20379;-86
2024/03/31 11:41:18;;;;;;;;;;;23.70;99.90;;;;;;5030931;28;20003;-89
2024/03/31 11:43:44;;;;;;;;;;;24.30;99.90;;;;;;5018813;28;19921;-87
2024/03/31 11:46:09;;;;;;;;;;;24.30;99.90;;;;;;5032684;28;20442;-89
2024/03/31 11:48:35;;;;;;;;;;;24.40;99.90;;;;;;5034355;28;20117;-86
2024/03/31 11:51:00;;;;;;;;;;;24.70;99.90;;;;;;5035921;28;19939;-88
2024/03/31 11:53:26;;;;;;;;;;;24.90;99.90;;;;;;5015574;28;19920;-88
2024/03/31 11:55:51;;;;;;;;;;;25.40;99.90;;;;;;5037115;28;19944;-88
2024/03/31 11:58:17;;;;;;;;;;;25.70;99.90;;;;;;5032256;28;20387;-89
2024/03/31 12:00:49;;;;;;;;;;;25.90;99.90;;;;;;5016569;28;20015;-87
2024/03/31 12:03:15;;;;;;;;;;;26.30;99.90;;;;;;5034867;28;19925;-88
2024/03/31 12:05:44;;;;;;;;;;;26.90;99.90;;;;;;5018580;28;19968;-85
2024/03/31 12:08:11;;;;;;;;;;;27.00;99.90;;;;;;5034723;28;20386;-87
2024/03/31 12:10:37;;;;;;;;;;;26.50;99.90;;;;;;5034192;28;20356;-89
2024/03/31 12:13:03;;;;;;;;;;;26.10;99.90;;;;;;5027432;28;20345;-86
2024/03/31 12:15:29;;;;;;;;;;;25.60;99.90;;;;;;5020751;28;19932;-87
2024/03/31 12:18:00;;;;;;;;;;;25.00;99.90;;;;;;5000467;28;19918;-87
2024/03/31 12:20:26;;;;;;;;;;;24.50;99.90;;;;;;5019679;28;19920;-88
2024/03/31 12:22:52;;;;;;;;;;;24.10;99.90;;;;;;5020644;28;20004;-85
2024/03/31 12:25:17;;;;;;;;;;;23.60;99.90;;;;;;5020279;28;20016;-85
2024/03/31 12:27:43;;;;;;;;;;;23.10;99.90;;;;;;5020902;28;19920;-87
2024/03/31 12:30:09;;;;;;;;;;;22.60;99.90;;;;;;5028847;28;19917;-86
2024/03/31 12:32:35;;;;;;;;;;;22.20;99.90;;;;;;5012651;28;19916;-88
2024/03/31 12:35:01;;;;;;;;;;;22.00;99.90;;;;;;5017727;28;19921;-86
2024/03/31 12:37:26;;;;;;;;;;;21.90;99.90;;;;;;5015062;28;19922;-84
2024/03/31 12:39:55;;;;;;;;;;;21.80;99.90;;;;;;5028935;28;19924;-84
2024/03/31 12:42:22;;;;;;;;;;;21.70;99.90;;;;;;5030819;28;19917;-84
2024/03/31 12:44:54;;;;;;;;;;;21.50;99.90;;;;;;5029508;28;20351;-86
2024/03/31 12:47:20;;;;;;;;;;;21.40;99.90;;;;;;5014376;28;19917;-86
2024/03/31 12:49:45;;;;;;;;;;;21.40;99.90;;;;;;5030243;28;19913;-86
2024/03/31 12:52:11;;;;;;;;;;;21.40;99.90;;;;;;5030052;28;19952;-86
2024/03/31 12:54:36;;;;;;;;;;;21.40;99.90;;;;;;5037477;28;19913;-85
2024/03/31 12:57:02;;;;;;;;;;;21.50;99.90;;;;;;5028225;28;19928;-86
2024/03/31 12:59:28;;;;;;;;;;;21.90;99.90;;;;;;5033583;28;20282;-86
2024/03/31 13:02:03;;;;;;;;;;;22.30;99.90;;;;;;5032310;28;19920;-86
2024/03/31 13:04:29;;;;;;;;;;;22.50;99.90;;;;;;5034127;28;19928;-87
2024/03/31 13:06:54;;;;;;;;;;;23.20;99.90;;;;;;5035217;28;20363;-88
2024/03/31 13:09:20;;;;;;;;;;;24.10;99.90;;;;;;5029408;28;20012;-87
2024/03/31 13:11:47;;;;;;;;;;;25.10;99.90;;;;;;5031631;28;20126;-88
2024/03/31 13:14:12;;;;;;;;;;;25.80;99.90;;;;;;5032220;28;19913;-87
2024/03/31 13:16:38;;;;;;;;;;;26.10;99.90;;;;;;5030878;28;19913;-86
2024/03/31 13:19:03;;;;;;;;;;;25.80;99.90;;;;;;5022076;28;19918;-87
2024/03/31 13:21:29;;;;;;;;;;;25.40;99.90;;;;;;5007469;28;19917;-87
2024/03/31 13:23:55;;;;;;;;;;;25.10;99.90;;;;;;5004315;28;19949;-85
2024/03/31 13:26:20;;;;;;;;;;;24.70;99.90;;;;;;5020474;28;19913;-85
2024/03/31 13:28:45;;;;;;;;;;;24.40;99.90;;;;;;5030034;28;19928;-87
2024/03/31 13:31:11;;;;;;;;;;;24.10;99.90;;;;;;5026039;28;19943;-88
2024/03/31 13:33:37;;;;;;;;;;;23.90;99.90;;;;;;5027769;28;20291;-86
2024/03/31 13:36:02;;;;;;;;;;;23.70;99.90;;;;;;5021527;28;19920;-84
2024/03/31 13:38:29;;;;;;;;;;;23.60;99.90;;;;;;5008701;28;19917;-85
2024/03/31 13:40:55;;;;;;;;;;;23.60;99.90;;;;;;5019643;28;19917;-84
2024/03/31 13:43:21;;;;;;;;;;;23.70;99.90;;;;;;5032295;28;20007;-85
2024/03/31 13:45:49;;;;;;;;;;;23.50;99.90;;;;;;5007916;28;20296;-86
2024/03/31 13:48:15;;;;;;;;;;;23.20;99.90;;;;;;5026019;28;20050;-85
2024/03/31 13:50:40;;;;;;;;;;;23.00;99.90;;;;;;5016225;28;20379;-88
2024/03/31 13:53:06;;;;;;;;;;;22.80;99.90;;;;;;5032929;28;19920;-83
2024/03/31 13:55:31;;;;;;;;;;;22.50;99.90;;;;;;5037512;28;19918;-83
2024/03/31 13:57:57;;;;;;;;;;;22.20;99.90;;;;;;5030553;28;19913;-85
2024/03/31 14:00:22;;;;;;;;;;;22.00;99.90;;;;;;5034254;28;19961;-84
2024/03/31 14:02:48;;;;;;;;;;;21.80;99.90;;;;;;5039936;28;19913;-85
2024/03/31 14:05:14;;;;;;;;;;;21.60;99.90;;;;;;5036982;28;19917;-90
2024/03/31 14:07:39;;;;;;;;;;;21.30;99.90;;;;;;5016482;28;19948;-85
2024/03/31 14:10:07;;;;;;;;;;;21.00;99.90;;;;;;5027827;28;19913;-90
2024/03/31 14:12:36;;;;;;;;;;;20.90;99.90;;;;;;5009480;28;19921;-84
2024/03/31 14:15:02;;;;;;;;;;;21.00;99.90;;;;;;5016484;28;19920;-85
2024/03/31 14:17:28;;;;;;;;;;;21.10;99.90;;;;;;5024177;28;19913;-83
2024/03/31 14:19:53;;;;;;;;;;;21.20;99.90;;;;;;5030880;28;20007;-85